sensor_id;sensor_type;location;lat;lon;timestamp;P1;durP1;ratioP1;P2;durP2;ratioP2
11498;SDS011;5806;48.748;9.278;2023-07-29T00:02:02;5.10;;;2.57;;
11498;SDS011;5806;48.748;9.278;2023-07-29T00:04:30;3.90;;;2.73;;
11498;SDS011;5806;48.748;9.278;2023-07-29T00:06:57;3.53;;;2.80;;
11498;SDS011;5806;48.748;9.278;2023-07-29T00:09:25;5.87;;;2.97;;
11498;SDS011;5806;48.748;9.278;2023-07-29T00:11:52;4.77;;;2.73;;
11498;SDS011;5806;48.748;9.278;2023-07-29T00:14:20;9.10;;;3.03;;
11498;SDS011;5806;48.748;9.278;2023-07-29T00:16:48;4.80;;;2.77;;
11498;SDS011;5806;48.748;9.278;2023-07-29T00:19:15;6.83;;;2.90;;
11498;SDS011;5806;48.748;9.278;2023-07-29T00:21:43;2.93;;;2.60;;
11498;SDS011;5806;48.748;9.278;2023-07-29T00:24:10;4.40;;;2.47;;
11498;SDS011;5806;48.748;9.278;2023-07-29T00:26:38;4.30;;;2.60;;
11498;SDS011;5806;48.748;9.278;2023-07-29T00:29:07;7.70;;;2.70;;
11498;SDS011;5806;48.748;9.278;2023-07-29T00:31:34;5.40;;;2.80;;
11498;SDS011;5806;48.748;9.278;2023-07-29T00:34:02;2.73;;;2.53;;
11498;SDS011;5806;48.748;9.278;2023-07-29T00:36:29;6.00;;;3.00;;
11498;SDS011;5806;48.748;9.278;2023-07-29T00:38:56;3.73;;;2.90;;
11498;SDS011;5806;48.748;9.278;2023-07-29T00:41:24;3.37;;;2.60;;
11498;SDS011;5806;48.748;9.278;2023-07-29T00:43:52;3.87;;;2.67;;
11498;SDS011;5806;48.748;9.278;2023-07-29T00:46:20;3.33;;;2.70;;
11498;SDS011;5806;48.748;9.278;2023-07-29T00:48:48;3.97;;;2.93;;
11498;SDS011;5806;48.748;9.278;2023-07-29T00:51:16;2.90;;;2.70;;
11498;SDS011;5806;48.748;9.278;2023-07-29T00:53:43;5.77;;;2.97;;
11498;SDS011;5806;48.748;9.278;2023-07-29T00:56:11;4.30;;;3.40;;
11498;SDS011;5806;48.748;9.278;2023-07-29T00:58:39;4.70;;;3.33;;
11498;SDS011;5806;48.748;9.278;2023-07-29T01:01:07;3.50;;;2.83;;
11498;SDS011;5806;48.748;9.278;2023-07-29T01:03:35;7.13;;;3.13;;
11498;SDS011;5806;48.748;9.278;2023-07-29T01:08:36;3.97;;;3.20;;
11498;SDS011;5806;48.748;9.278;2023-07-29T01:11:07;5.23;;;2.87;;
11498;SDS011;5806;48.748;9.278;2023-07-29T01:13:58;4.37;;;3.10;;
11498;SDS011;5806;48.748;9.278;2023-07-29T01:16:30;5.27;;;2.87;;
11498;SDS011;5806;48.748;9.278;2023-07-29T01:18:59;6.00;;;3.00;;
11498;SDS011;5806;48.748;9.278;2023-07-29T01:21:28;3.07;;;2.87;;
11498;SDS011;5806;48.748;9.278;2023-07-29T01:24:01;3.67;;;2.97;;
11498;SDS011;5806;48.748;9.278;2023-07-29T01:26:25;5.13;;;2.80;;
11498;SDS011;5806;48.748;9.278;2023-07-29T01:28:55;3.13;;;2.73;;
11498;SDS011;5806;48.748;9.278;2023-07-29T01:31:29;4.23;;;3.20;;
11498;SDS011;5806;48.748;9.278;2023-07-29T01:34:08;8.10;;;2.90;;
11498;SDS011;5806;48.748;9.278;2023-07-29T01:36:45;2.90;;;2.57;;
11498;SDS011;5806;48.748;9.278;2023-07-29T01:39:15;4.10;;;2.87;;
11498;SDS011;5806;48.748;9.278;2023-07-29T01:41:45;7.53;;;3.20;;
11498;SDS011;5806;48.748;9.278;2023-07-29T01:44:14;5.13;;;3.33;;
11498;SDS011;5806;48.748;9.278;2023-07-29T01:46:43;5.57;;;3.27;;
11498;SDS011;5806;48.748;9.278;2023-07-29T01:49:11;3.77;;;3.27;;
11498;SDS011;5806;48.748;9.278;2023-07-29T01:51:38;5.87;;;3.20;;
11498;SDS011;5806;48.748;9.278;2023-07-29T01:54:06;9.57;;;3.70;;
11498;SDS011;5806;48.748;9.278;2023-07-29T01:56:33;3.50;;;3.20;;
11498;SDS011;5806;48.748;9.278;2023-07-29T01:59:01;6.03;;;3.70;;
11498;SDS011;5806;48.748;9.278;2023-07-29T02:01:28;5.30;;;3.40;;
11498;SDS011;5806;48.748;9.278;2023-07-29T02:03:57;5.43;;;3.60;;
11498;SDS011;5806;48.748;9.278;2023-07-29T02:06:24;16.03;;;5.30;;
11498;SDS011;5806;48.748;9.278;2023-07-29T02:08:53;13.37;;;5.83;;
11498;SDS011;5806;48.748;9.278;2023-07-29T02:11:23;7.67;;;4.67;;
11498;SDS011;5806;48.748;9.278;2023-07-29T02:13:52;7.67;;;4.10;;
11498;SDS011;5806;48.748;9.278;2023-07-29T02:16:22;7.93;;;4.87;;
11498;SDS011;5806;48.748;9.278;2023-07-29T02:18:50;25.23;;;8.00;;
11498;SDS011;5806;48.748;9.278;2023-07-29T02:21:17;12.60;;;6.10;;
11498;SDS011;5806;48.748;9.278;2023-07-29T02:23:45;15.37;;;6.23;;
11498;SDS011;5806;48.748;9.278;2023-07-29T02:26:12;8.80;;;5.10;;
11498;SDS011;5806;48.748;9.278;2023-07-29T02:28:40;9.10;;;4.60;;
11498;SDS011;5806;48.748;9.278;2023-07-29T02:31:21;8.40;;;4.40;;
11498;SDS011;5806;48.748;9.278;2023-07-29T02:33:50;7.73;;;4.90;;
11498;SDS011;5806;48.748;9.278;2023-07-29T02:36:18;6.40;;;4.30;;
11498;SDS011;5806;48.748;9.278;2023-07-29T02:38:45;4.07;;;3.67;;
11498;SDS011;5806;48.748;9.278;2023-07-29T02:41:13;5.87;;;3.53;;
11498;SDS011;5806;48.748;9.278;2023-07-29T02:43:42;13.77;;;4.07;;
11498;SDS011;5806;48.748;9.278;2023-07-29T02:46:10;3.73;;;3.33;;
11498;SDS011;5806;48.748;9.278;2023-07-29T02:48:38;6.57;;;4.00;;
11498;SDS011;5806;48.748;9.278;2023-07-29T02:51:05;9.20;;;4.37;;
11498;SDS011;5806;48.748;9.278;2023-07-29T02:53:32;9.20;;;4.10;;
11498;SDS011;5806;48.748;9.278;2023-07-29T02:56:02;6.57;;;3.80;;
11498;SDS011;5806;48.748;9.278;2023-07-29T02:58:31;8.00;;;4.20;;
11498;SDS011;5806;48.748;9.278;2023-07-29T03:01:03;7.33;;;3.83;;
11498;SDS011;5806;48.748;9.278;2023-07-29T03:03:31;5.83;;;3.50;;
11498;SDS011;5806;48.748;9.278;2023-07-29T03:06:00;5.23;;;4.10;;
11498;SDS011;5806;48.748;9.278;2023-07-29T03:08:32;7.40;;;4.10;;
11498;SDS011;5806;48.748;9.278;2023-07-29T03:11:04;12.30;;;4.20;;
11498;SDS011;5806;48.748;9.278;2023-07-29T03:13:33;9.70;;;5.07;;
11498;SDS011;5806;48.748;9.278;2023-07-29T03:16:16;5.83;;;4.43;;
11498;SDS011;5806;48.748;9.278;2023-07-29T03:18:44;7.10;;;4.53;;
11498;SDS011;5806;48.748;9.278;2023-07-29T03:21:13;7.17;;;5.40;;
11498;SDS011;5806;48.748;9.278;2023-07-29T03:23:40;5.27;;;4.77;;
11498;SDS011;5806;48.748;9.278;2023-07-29T03:26:08;5.27;;;4.77;;
11498;SDS011;5806;48.748;9.278;2023-07-29T03:28:37;5.23;;;4.73;;
11498;SDS011;5806;48.748;9.278;2023-07-29T03:31:06;6.83;;;4.93;;
11498;SDS011;5806;48.748;9.278;2023-07-29T03:33:34;8.60;;;5.27;;
11498;SDS011;5806;48.748;9.278;2023-07-29T03:36:01;7.10;;;4.77;;
11498;SDS011;5806;48.748;9.278;2023-07-29T03:38:29;8.13;;;5.13;;
11498;SDS011;5806;48.748;9.278;2023-07-29T03:40:58;7.83;;;5.23;;
11498;SDS011;5806;48.748;9.278;2023-07-29T03:43:27;7.23;;;5.37;;
11498;SDS011;5806;48.748;9.278;2023-07-29T03:45:55;6.80;;;5.37;;
11498;SDS011;5806;48.748;9.278;2023-07-29T03:48:23;6.60;;;5.43;;
11498;SDS011;5806;48.748;9.278;2023-07-29T03:50:50;6.43;;;5.00;;
11498;SDS011;5806;48.748;9.278;2023-07-29T03:53:18;7.23;;;5.10;;
11498;SDS011;5806;48.748;9.278;2023-07-29T03:55:45;5.80;;;5.10;;
11498;SDS011;5806;48.748;9.278;2023-07-29T03:58:13;6.13;;;4.97;;
11498;SDS011;5806;48.748;9.278;2023-07-29T04:00:40;8.00;;;5.30;;
11498;SDS011;5806;48.748;9.278;2023-07-29T04:03:08;5.10;;;4.60;;
11498;SDS011;5806;48.748;9.278;2023-07-29T04:05:36;5.20;;;4.70;;
11498;SDS011;5806;48.748;9.278;2023-07-29T04:08:03;7.70;;;5.00;;
11498;SDS011;5806;48.748;9.278;2023-07-29T04:10:31;9.07;;;4.60;;
11498;SDS011;5806;48.748;9.278;2023-07-29T04:13:00;5.33;;;3.87;;
11498;SDS011;5806;48.748;9.278;2023-07-29T04:15:27;7.60;;;4.10;;
11498;SDS011;5806;48.748;9.278;2023-07-29T04:17:56;5.30;;;3.80;;
11498;SDS011;5806;48.748;9.278;2023-07-29T04:20:23;5.00;;;3.70;;
11498;SDS011;5806;48.748;9.278;2023-07-29T04:22:51;6.93;;;3.60;;
11498;SDS011;5806;48.748;9.278;2023-07-29T04:25:18;5.60;;;3.73;;
11498;SDS011;5806;48.748;9.278;2023-07-29T04:27:46;4.37;;;3.67;;
11498;SDS011;5806;48.748;9.278;2023-07-29T04:30:13;5.67;;;3.40;;
11498;SDS011;5806;48.748;9.278;2023-07-29T04:32:41;6.70;;;3.93;;
11498;SDS011;5806;48.748;9.278;2023-07-29T04:35:10;5.17;;;3.90;;
11498;SDS011;5806;48.748;9.278;2023-07-29T04:37:37;4.40;;;3.63;;
11498;SDS011;5806;48.748;9.278;2023-07-29T04:40:05;4.37;;;3.90;;
11498;SDS011;5806;48.748;9.278;2023-07-29T04:42:33;4.40;;;3.40;;
11498;SDS011;5806;48.748;9.278;2023-07-29T04:45:01;3.93;;;3.60;;
11498;SDS011;5806;48.748;9.278;2023-07-29T04:47:28;4.83;;;3.43;;
11498;SDS011;5806;48.748;9.278;2023-07-29T04:49:55;3.73;;;3.40;;
11498;SDS011;5806;48.748;9.278;2023-07-29T04:52:23;6.53;;;3.70;;
11498;SDS011;5806;48.748;9.278;2023-07-29T04:54:50;5.33;;;3.80;;
11498;SDS011;5806;48.748;9.278;2023-07-29T04:57:18;5.30;;;3.50;;
11498;SDS011;5806;48.748;9.278;2023-07-29T04:59:45;4.07;;;3.30;;
11498;SDS011;5806;48.748;9.278;2023-07-29T05:02:13;5.13;;;3.67;;
11498;SDS011;5806;48.748;9.278;2023-07-29T05:04:41;6.70;;;4.17;;
11498;SDS011;5806;48.748;9.278;2023-07-29T05:07:08;4.90;;;4.17;;
11498;SDS011;5806;48.748;9.278;2023-07-29T05:09:35;4.83;;;4.13;;
11498;SDS011;5806;48.748;9.278;2023-07-29T05:12:03;6.10;;;4.30;;
11498;SDS011;5806;48.748;9.278;2023-07-29T05:14:51;5.60;;;3.87;;
11498;SDS011;5806;48.748;9.278;2023-07-29T05:17:19;4.50;;;4.00;;
11498;SDS011;5806;48.748;9.278;2023-07-29T05:19:46;6.97;;;5.07;;
11498;SDS011;5806;48.748;9.278;2023-07-29T05:22:14;5.77;;;4.87;;
11498;SDS011;5806;48.748;9.278;2023-07-29T05:24:41;5.53;;;4.37;;
11498;SDS011;5806;48.748;9.278;2023-07-29T05:27:09;5.10;;;4.60;;
11498;SDS011;5806;48.748;9.278;2023-07-29T05:29:37;5.63;;;4.70;;
11498;SDS011;5806;48.748;9.278;2023-07-29T05:32:04;11.80;;;6.07;;
11498;SDS011;5806;48.748;9.278;2023-07-29T05:34:32;10.03;;;5.83;;
11498;SDS011;5806;48.748;9.278;2023-07-29T05:36:59;6.37;;;5.33;;
11498;SDS011;5806;48.748;9.278;2023-07-29T05:39:27;6.73;;;5.27;;
11498;SDS011;5806;48.748;9.278;2023-07-29T05:41:55;6.03;;;5.30;;
11498;SDS011;5806;48.748;9.278;2023-07-29T05:44:22;7.47;;;5.40;;
11498;SDS011;5806;48.748;9.278;2023-07-29T05:46:50;7.83;;;5.80;;
11498;SDS011;5806;48.748;9.278;2023-07-29T05:49:17;6.43;;;5.77;;
11498;SDS011;5806;48.748;9.278;2023-07-29T05:51:44;8.07;;;6.40;;
11498;SDS011;5806;48.748;9.278;2023-07-29T05:54:12;8.03;;;7.00;;
11498;SDS011;5806;48.748;9.278;2023-07-29T05:56:39;7.60;;;6.87;;
11498;SDS011;5806;48.748;9.278;2023-07-29T05:59:07;8.40;;;6.60;;
11498;SDS011;5806;48.748;9.278;2023-07-29T06:01:34;9.23;;;6.47;;
11498;SDS011;5806;48.748;9.278;2023-07-29T06:04:01;8.33;;;7.10;;
11498;SDS011;5806;48.748;9.278;2023-07-29T06:06:29;9.40;;;7.30;;
11498;SDS011;5806;48.748;9.278;2023-07-29T06:08:56;9.47;;;6.33;;
11498;SDS011;5806;48.748;9.278;2023-07-29T06:11:24;11.00;;;6.83;;
11498;SDS011;5806;48.748;9.278;2023-07-29T06:13:51;7.40;;;6.70;;
11498;SDS011;5806;48.748;9.278;2023-07-29T06:16:19;7.80;;;7.00;;
11498;SDS011;5806;48.748;9.278;2023-07-29T06:18:46;9.70;;;7.63;;
11498;SDS011;5806;48.748;9.278;2023-07-29T06:21:14;7.77;;;6.97;;
11498;SDS011;5806;48.748;9.278;2023-07-29T06:23:43;7.83;;;7.03;;
11498;SDS011;5806;48.748;9.278;2023-07-29T06:26:10;6.43;;;5.83;;
11498;SDS011;5806;48.748;9.278;2023-07-29T06:28:38;10.03;;;6.60;;
11498;SDS011;5806;48.748;9.278;2023-07-29T06:31:05;9.07;;;6.43;;
11498;SDS011;5806;48.748;9.278;2023-07-29T06:33:32;6.47;;;5.77;;
11498;SDS011;5806;48.748;9.278;2023-07-29T06:36:00;6.57;;;5.03;;
11498;SDS011;5806;48.748;9.278;2023-07-29T06:38:27;7.07;;;6.27;;
11498;SDS011;5806;48.748;9.278;2023-07-29T06:40:55;6.23;;;5.00;;
11498;SDS011;5806;48.748;9.278;2023-07-29T06:43:22;6.83;;;4.40;;
11498;SDS011;5806;48.748;9.278;2023-07-29T06:45:50;7.10;;;4.13;;
11498;SDS011;5806;48.748;9.278;2023-07-29T06:48:17;5.00;;;3.20;;
11498;SDS011;5806;48.748;9.278;2023-07-29T06:50:45;3.87;;;2.87;;
11498;SDS011;5806;48.748;9.278;2023-07-29T06:53:13;4.73;;;2.87;;
11498;SDS011;5806;48.748;9.278;2023-07-29T06:55:40;6.40;;;3.50;;
11498;SDS011;5806;48.748;9.278;2023-07-29T06:58:08;4.63;;;3.03;;
11498;SDS011;5806;48.748;9.278;2023-07-29T07:00:35;5.87;;;3.20;;
11498;SDS011;5806;48.748;9.278;2023-07-29T07:03:03;4.03;;;2.90;;
11498;SDS011;5806;48.748;9.278;2023-07-29T07:05:30;4.47;;;3.20;;
11498;SDS011;5806;48.748;9.278;2023-07-29T07:07:58;6.20;;;3.37;;
11498;SDS011;5806;48.748;9.278;2023-07-29T07:10:25;5.13;;;3.37;;
11498;SDS011;5806;48.748;9.278;2023-07-29T07:12:52;5.90;;;3.40;;
11498;SDS011;5806;48.748;9.278;2023-07-29T07:15:20;5.23;;;3.53;;
11498;SDS011;5806;48.748;9.278;2023-07-29T07:17:47;4.60;;;3.67;;
11498;SDS011;5806;48.748;9.278;2023-07-29T07:20:15;6.63;;;3.37;;
11498;SDS011;5806;48.748;9.278;2023-07-29T07:22:43;5.83;;;3.13;;
11498;SDS011;5806;48.748;9.278;2023-07-29T07:25:10;4.77;;;3.20;;
11498;SDS011;5806;48.748;9.278;2023-07-29T07:27:38;3.67;;;3.37;;
11498;SDS011;5806;48.748;9.278;2023-07-29T07:30:06;5.53;;;3.40;;
11498;SDS011;5806;48.748;9.278;2023-07-29T07:32:33;5.23;;;3.10;;
11498;SDS011;5806;48.748;9.278;2023-07-29T07:35:01;4.07;;;3.10;;
11498;SDS011;5806;48.748;9.278;2023-07-29T07:37:29;4.33;;;3.00;;
11498;SDS011;5806;48.748;9.278;2023-07-29T07:39:57;4.67;;;3.20;;
11498;SDS011;5806;48.748;9.278;2023-07-29T07:42:24;4.60;;;3.27;;
11498;SDS011;5806;48.748;9.278;2023-07-29T07:44:52;6.57;;;3.10;;
11498;SDS011;5806;48.748;9.278;2023-07-29T07:47:19;5.70;;;3.80;;
11498;SDS011;5806;48.748;9.278;2023-07-29T07:49:47;5.60;;;3.40;;
11498;SDS011;5806;48.748;9.278;2023-07-29T07:52:15;4.57;;;3.60;;
11498;SDS011;5806;48.748;9.278;2023-07-29T07:54:43;6.00;;;3.67;;
11498;SDS011;5806;48.748;9.278;2023-07-29T07:57:10;4.93;;;3.57;;
11498;SDS011;5806;48.748;9.278;2023-07-29T07:59:38;6.00;;;3.13;;
11498;SDS011;5806;48.748;9.278;2023-07-29T08:02:05;4.33;;;3.00;;
11498;SDS011;5806;48.748;9.278;2023-07-29T08:04:33;4.03;;;2.90;;
11498;SDS011;5806;48.748;9.278;2023-07-29T08:07:00;5.97;;;2.63;;
11498;SDS011;5806;48.748;9.278;2023-07-29T08:09:28;4.67;;;2.67;;
11498;SDS011;5806;48.748;9.278;2023-07-29T08:11:55;12.77;;;2.77;;
11498;SDS011;5806;48.748;9.278;2023-07-29T08:14:22;2.70;;;2.07;;
11498;SDS011;5806;48.748;9.278;2023-07-29T08:16:50;3.93;;;2.00;;
11498;SDS011;5806;48.748;9.278;2023-07-29T08:19:17;3.17;;;1.97;;
11498;SDS011;5806;48.748;9.278;2023-07-29T08:21:45;2.37;;;2.10;;
11498;SDS011;5806;48.748;9.278;2023-07-29T08:24:12;2.40;;;2.20;;
11498;SDS011;5806;48.748;9.278;2023-07-29T08:26:39;3.40;;;2.40;;
11498;SDS011;5806;48.748;9.278;2023-07-29T08:29:07;5.97;;;2.30;;
11498;SDS011;5806;48.748;9.278;2023-07-29T08:31:34;3.23;;;2.17;;
11498;SDS011;5806;48.748;9.278;2023-07-29T08:34:02;2.53;;;1.90;;
11498;SDS011;5806;48.748;9.278;2023-07-29T08:36:29;3.30;;;2.10;;
11498;SDS011;5806;48.748;9.278;2023-07-29T08:38:56;2.97;;;1.93;;
11498;SDS011;5806;48.748;9.278;2023-07-29T08:41:37;2.73;;;1.70;;
11498;SDS011;5806;48.748;9.278;2023-07-29T08:44:26;4.27;;;1.70;;
11498;SDS011;5806;48.748;9.278;2023-07-29T08:46:50;2.60;;;1.90;;
11498;SDS011;5806;48.748;9.278;2023-07-29T08:49:19;3.07;;;1.70;;
11498;SDS011;5806;48.748;9.278;2023-07-29T08:51:49;2.07;;;1.87;;
11498;SDS011;5806;48.748;9.278;2023-07-29T08:54:18;2.37;;;1.90;;
11498;SDS011;5806;48.748;9.278;2023-07-29T08:56:45;3.77;;;1.97;;
11498;SDS011;5806;48.748;9.278;2023-07-29T08:59:13;3.13;;;1.97;;
11498;SDS011;5806;48.748;9.278;2023-07-29T09:01:43;2.13;;;1.80;;
11498;SDS011;5806;48.748;9.278;2023-07-29T09:04:11;2.23;;;2.03;;
11498;SDS011;5806;48.748;9.278;2023-07-29T09:06:39;2.33;;;1.77;;
11498;SDS011;5806;48.748;9.278;2023-07-29T09:09:08;2.63;;;1.87;;
11498;SDS011;5806;48.748;9.278;2023-07-29T09:11:36;2.30;;;2.10;;
11498;SDS011;5806;48.748;9.278;2023-07-29T09:14:03;3.27;;;2.97;;
11498;SDS011;5806;48.748;9.278;2023-07-29T09:16:31;3.33;;;2.17;;
11498;SDS011;5806;48.748;9.278;2023-07-29T09:19:02;4.50;;;2.80;;
11498;SDS011;5806;48.748;9.278;2023-07-29T09:21:31;4.93;;;2.83;;
11498;SDS011;5806;48.748;9.278;2023-07-29T09:24:02;3.93;;;3.13;;
11498;SDS011;5806;48.748;9.278;2023-07-29T09:26:33;3.80;;;3.27;;
11498;SDS011;5806;48.748;9.278;2023-07-29T09:29:01;4.07;;;3.67;;
11498;SDS011;5806;48.748;9.278;2023-07-29T09:31:28;3.00;;;2.40;;
11498;SDS011;5806;48.748;9.278;2023-07-29T09:33:57;3.03;;;2.63;;
11498;SDS011;5806;48.748;9.278;2023-07-29T09:36:26;2.53;;;2.33;;
11498;SDS011;5806;48.748;9.278;2023-07-29T09:38:54;5.03;;;2.30;;
11498;SDS011;5806;48.748;9.278;2023-07-29T09:41:23;4.20;;;1.70;;
11498;SDS011;5806;48.748;9.278;2023-07-29T09:44:02;2.00;;;1.80;;
11498;SDS011;5806;48.748;9.278;2023-07-29T09:46:35;2.40;;;1.90;;
11498;SDS011;5806;48.748;9.278;2023-07-29T09:49:04;6.07;;;1.90;;
11498;SDS011;5806;48.748;9.278;2023-07-29T09:51:39;3.93;;;1.83;;
11498;SDS011;5806;48.748;9.278;2023-07-29T09:54:07;3.47;;;2.10;;
11498;SDS011;5806;48.748;9.278;2023-07-29T09:56:35;4.93;;;2.40;;
11498;SDS011;5806;48.748;9.278;2023-07-29T09:59:05;3.30;;;2.23;;
11498;SDS011;5806;48.748;9.278;2023-07-29T10:01:33;2.97;;;2.10;;
11498;SDS011;5806;48.748;9.278;2023-07-29T10:04:02;3.10;;;2.30;;
11498;SDS011;5806;48.748;9.278;2023-07-29T10:06:30;4.67;;;2.97;;
11498;SDS011;5806;48.748;9.278;2023-07-29T10:09:01;5.53;;;2.77;;
11498;SDS011;5806;48.748;9.278;2023-07-29T10:11:28;5.23;;;2.27;;
11498;SDS011;5806;48.748;9.278;2023-07-29T10:13:57;2.93;;;2.30;;
11498;SDS011;5806;48.748;9.278;2023-07-29T10:16:26;3.10;;;2.70;;
11498;SDS011;5806;48.748;9.278;2023-07-29T10:18:54;3.27;;;2.60;;
11498;SDS011;5806;48.748;9.278;2023-07-29T10:21:23;4.13;;;2.67;;
11498;SDS011;5806;48.748;9.278;2023-07-29T10:23:51;5.70;;;3.03;;
11498;SDS011;5806;48.748;9.278;2023-07-29T10:26:21;3.30;;;3.00;;
11498;SDS011;5806;48.748;9.278;2023-07-29T10:28:50;4.67;;;2.83;;
11498;SDS011;5806;48.748;9.278;2023-07-29T10:31:20;5.50;;;2.47;;
11498;SDS011;5806;48.748;9.278;2023-07-29T10:33:49;3.60;;;3.03;;
11498;SDS011;5806;48.748;9.278;2023-07-29T10:36:17;5.33;;;3.10;;
11498;SDS011;5806;48.748;9.278;2023-07-29T10:38:46;4.37;;;2.87;;
11498;SDS011;5806;48.748;9.278;2023-07-29T10:41:14;2.63;;;2.40;;
11498;SDS011;5806;48.748;9.278;2023-07-29T10:43:41;4.83;;;2.30;;
11498;SDS011;5806;48.748;9.278;2023-07-29T10:46:21;2.30;;;1.83;;
11498;SDS011;5806;48.748;9.278;2023-07-29T10:51:26;2.10;;;1.90;;
11498;SDS011;5806;48.748;9.278;2023-07-29T10:53:59;4.07;;;2.03;;
11498;SDS011;5806;48.748;9.278;2023-07-29T10:56:32;2.80;;;1.50;;
11498;SDS011;5806;48.748;9.278;2023-07-29T11:01:51;3.27;;;1.70;;
11498;SDS011;5806;48.748;9.278;2023-07-29T11:09:40;2.37;;;1.70;;
11498;SDS011;5806;48.748;9.278;2023-07-29T11:17:43;4.90;;;2.17;;
11498;SDS011;5806;48.748;9.278;2023-07-29T11:20:27;2.10;;;1.87;;
11498;SDS011;5806;48.748;9.278;2023-07-29T11:23:03;2.37;;;1.93;;
11498;SDS011;5806;48.748;9.278;2023-07-29T11:25:31;2.30;;;1.90;;
11498;SDS011;5806;48.748;9.278;2023-07-29T11:28:02;2.50;;;1.80;;
11498;SDS011;5806;48.748;9.278;2023-07-29T11:30:29;2.67;;;2.13;;
11498;SDS011;5806;48.748;9.278;2023-07-29T11:32:59;2.53;;;2.20;;
11498;SDS011;5806;48.748;9.278;2023-07-29T11:35:26;2.13;;;1.97;;
11498;SDS011;5806;48.748;9.278;2023-07-29T11:37:54;4.10;;;2.10;;
11498;SDS011;5806;48.748;9.278;2023-07-29T11:40:24;4.07;;;2.17;;
11498;SDS011;5806;48.748;9.278;2023-07-29T11:42:52;3.37;;;2.47;;
11498;SDS011;5806;48.748;9.278;2023-07-29T11:45:21;9.73;;;4.70;;
11498;SDS011;5806;48.748;9.278;2023-07-29T11:47:49;4.07;;;2.20;;
11498;SDS011;5806;48.748;9.278;2023-07-29T11:50:16;5.63;;;3.07;;
11498;SDS011;5806;48.748;9.278;2023-07-29T11:52:44;4.60;;;2.77;;
11498;SDS011;5806;48.748;9.278;2023-07-29T11:55:13;3.20;;;1.90;;
11498;SDS011;5806;48.748;9.278;2023-07-29T11:57:42;4.53;;;2.77;;
11498;SDS011;5806;48.748;9.278;2023-07-29T12:00:10;7.03;;;4.10;;
11498;SDS011;5806;48.748;9.278;2023-07-29T12:02:40;3.10;;;2.27;;
11498;SDS011;5806;48.748;9.278;2023-07-29T12:05:13;2.50;;;1.60;;
11498;SDS011;5806;48.748;9.278;2023-07-29T12:07:42;6.17;;;3.00;;
11498;SDS011;5806;48.748;9.278;2023-07-29T12:10:11;4.87;;;2.67;;
11498;SDS011;5806;48.748;9.278;2023-07-29T12:12:44;3.47;;;1.90;;
11498;SDS011;5806;48.748;9.278;2023-07-29T12:15:09;2.40;;;2.20;;
11498;SDS011;5806;48.748;9.278;2023-07-29T12:17:40;3.83;;;2.00;;
11498;SDS011;5806;48.748;9.278;2023-07-29T12:20:08;2.80;;;2.53;;
11498;SDS011;5806;48.748;9.278;2023-07-29T12:22:36;2.43;;;2.23;;
11498;SDS011;5806;48.748;9.278;2023-07-29T12:25:04;2.40;;;2.20;;
11498;SDS011;5806;48.748;9.278;2023-07-29T12:27:32;4.07;;;2.60;;
11498;SDS011;5806;48.748;9.278;2023-07-29T12:30:01;2.87;;;2.33;;
11498;SDS011;5806;48.748;9.278;2023-07-29T12:32:31;4.63;;;2.87;;
11498;SDS011;5806;48.748;9.278;2023-07-29T12:34:58;4.80;;;3.37;;
11498;SDS011;5806;48.748;9.278;2023-07-29T12:37:32;6.67;;;3.60;;
11498;SDS011;5806;48.748;9.278;2023-07-29T12:39:59;7.77;;;4.00;;
11498;SDS011;5806;48.748;9.278;2023-07-29T12:42:27;2.37;;;2.10;;
11498;SDS011;5806;48.748;9.278;2023-07-29T12:44:54;2.13;;;1.90;;
11498;SDS011;5806;48.748;9.278;2023-07-29T12:47:21;2.40;;;2.20;;
11498;SDS011;5806;48.748;9.278;2023-07-29T12:49:49;2.07;;;1.80;;
11498;SDS011;5806;48.748;9.278;2023-07-29T12:52:16;2.13;;;1.80;;
11498;SDS011;5806;48.748;9.278;2023-07-29T12:54:44;3.50;;;1.90;;
11498;SDS011;5806;48.748;9.278;2023-07-29T12:57:11;3.93;;;2.00;;
11498;SDS011;5806;48.748;9.278;2023-07-29T12:59:38;3.80;;;2.10;;
11498;SDS011;5806;48.748;9.278;2023-07-29T13:02:06;2.13;;;1.83;;
11498;SDS011;5806;48.748;9.278;2023-07-29T13:04:34;1.90;;;1.70;;
11498;SDS011;5806;48.748;9.278;2023-07-29T13:07:01;5.40;;;2.90;;
11498;SDS011;5806;48.748;9.278;2023-07-29T13:09:29;6.50;;;3.80;;
11498;SDS011;5806;48.748;9.278;2023-07-29T13:11:56;2.90;;;1.80;;
11498;SDS011;5806;48.748;9.278;2023-07-29T13:14:24;2.10;;;1.90;;
11498;SDS011;5806;48.748;9.278;2023-07-29T13:16:51;2.23;;;1.80;;
11498;SDS011;5806;48.748;9.278;2023-07-29T13:19:19;3.00;;;1.87;;
11498;SDS011;5806;48.748;9.278;2023-07-29T13:21:46;2.03;;;1.83;;
11498;SDS011;5806;48.748;9.278;2023-07-29T13:24:14;2.23;;;1.70;;
11498;SDS011;5806;48.748;9.278;2023-07-29T13:26:41;2.27;;;1.53;;
11498;SDS011;5806;48.748;9.278;2023-07-29T13:29:09;5.03;;;1.97;;
11498;SDS011;5806;48.748;9.278;2023-07-29T13:31:36;4.60;;;1.87;;
11498;SDS011;5806;48.748;9.278;2023-07-29T13:34:03;1.60;;;1.50;;
11498;SDS011;5806;48.748;9.278;2023-07-29T13:36:31;3.10;;;2.17;;
11498;SDS011;5806;48.748;9.278;2023-07-29T13:38:58;4.97;;;2.27;;
11498;SDS011;5806;48.748;9.278;2023-07-29T13:41:26;1.90;;;1.63;;
11498;SDS011;5806;48.748;9.278;2023-07-29T13:43:53;2.67;;;1.60;;
11498;SDS011;5806;48.748;9.278;2023-07-29T13:46:20;2.50;;;2.23;;
11498;SDS011;5806;48.748;9.278;2023-07-29T13:48:48;3.17;;;2.20;;
11498;SDS011;5806;48.748;9.278;2023-07-29T13:51:15;5.03;;;2.60;;
11498;SDS011;5806;48.748;9.278;2023-07-29T13:53:43;2.77;;;2.57;;
11498;SDS011;5806;48.748;9.278;2023-07-29T13:56:10;4.63;;;2.57;;
11498;SDS011;5806;48.748;9.278;2023-07-29T13:58:37;5.83;;;3.13;;
11498;SDS011;5806;48.748;9.278;2023-07-29T14:01:06;4.17;;;2.50;;
11498;SDS011;5806;48.748;9.278;2023-07-29T14:03:33;3.70;;;2.73;;
11498;SDS011;5806;48.748;9.278;2023-07-29T14:06:01;4.93;;;3.00;;
11498;SDS011;5806;48.748;9.278;2023-07-29T14:08:28;4.67;;;3.30;;
11498;SDS011;5806;48.748;9.278;2023-07-29T14:10:55;3.73;;;2.83;;
11498;SDS011;5806;48.748;9.278;2023-07-29T14:13:23;3.67;;;3.37;;
11498;SDS011;5806;48.748;9.278;2023-07-29T14:15:50;4.30;;;2.90;;
11498;SDS011;5806;48.748;9.278;2023-07-29T14:18:18;5.27;;;3.23;;
11498;SDS011;5806;48.748;9.278;2023-07-29T14:20:45;4.13;;;3.53;;
11498;SDS011;5806;48.748;9.278;2023-07-29T14:23:13;3.80;;;3.37;;
11498;SDS011;5806;48.748;9.278;2023-07-29T14:25:40;4.17;;;2.77;;
11498;SDS011;5806;48.748;9.278;2023-07-29T14:28:08;4.23;;;3.30;;
11498;SDS011;5806;48.748;9.278;2023-07-29T14:30:35;4.67;;;2.90;;
11498;SDS011;5806;48.748;9.278;2023-07-29T14:33:03;3.33;;;2.80;;
11498;SDS011;5806;48.748;9.278;2023-07-29T14:35:32;2.77;;;2.53;;
11498;SDS011;5806;48.748;9.278;2023-07-29T14:37:59;3.20;;;2.60;;
11498;SDS011;5806;48.748;9.278;2023-07-29T14:40:26;5.53;;;2.40;;
11498;SDS011;5806;48.748;9.278;2023-07-29T14:42:54;3.20;;;2.50;;
11498;SDS011;5806;48.748;9.278;2023-07-29T14:45:21;2.73;;;2.50;;
11498;SDS011;5806;48.748;9.278;2023-07-29T14:47:49;4.53;;;2.33;;
11498;SDS011;5806;48.748;9.278;2023-07-29T14:50:16;7.50;;;3.07;;
11498;SDS011;5806;48.748;9.278;2023-07-29T14:52:43;3.23;;;2.50;;
11498;SDS011;5806;48.748;9.278;2023-07-29T14:55:11;2.77;;;2.57;;
11498;SDS011;5806;48.748;9.278;2023-07-29T14:57:38;2.90;;;2.60;;
11498;SDS011;5806;48.748;9.278;2023-07-29T15:00:07;2.83;;;2.53;;
11498;SDS011;5806;48.748;9.278;2023-07-29T15:02:34;4.37;;;2.77;;
11498;SDS011;5806;48.748;9.278;2023-07-29T15:05:02;3.13;;;2.70;;
11498;SDS011;5806;48.748;9.278;2023-07-29T15:07:29;3.77;;;2.70;;
11498;SDS011;5806;48.748;9.278;2023-07-29T15:09:57;5.60;;;3.03;;
11498;SDS011;5806;48.748;9.278;2023-07-29T15:12:24;4.97;;;2.90;;
11498;SDS011;5806;48.748;9.278;2023-07-29T15:14:52;3.97;;;3.23;;
11498;SDS011;5806;48.748;9.278;2023-07-29T15:17:19;3.67;;;3.00;;
11498;SDS011;5806;48.748;9.278;2023-07-29T15:19:46;3.43;;;2.63;;
11498;SDS011;5806;48.748;9.278;2023-07-29T15:22:16;3.90;;;2.47;;
11498;SDS011;5806;48.748;9.278;2023-07-29T15:24:44;3.13;;;2.83;;
11498;SDS011;5806;48.748;9.278;2023-07-29T15:27:12;4.57;;;3.00;;